sensor_id;sensor_type;location;lat;lon;timestamp;P1;durP1;ratioP1;P2;durP2;ratioP2
26936;SDS011;14495;48.116;11.676;2023-06-01T00:01:46;11.23;;;5.78;;
26936;SDS011;14495;48.116;11.676;2023-06-01T00:04:11;7.72;;;4.55;;
26936;SDS011;14495;48.116;11.676;2023-06-01T00:06:38;9.68;;;5.35;;
26936;SDS011;14495;48.116;11.676;2023-06-01T00:09:03;8.50;;;5.03;;
26936;SDS011;14495;48.116;11.676;2023-06-01T00:11:29;8.40;;;4.93;;
26936;SDS011;14495;48.116;11.676;2023-06-01T00:13:54;12.13;;;4.50;;
26936;SDS011;14495;48.116;11.676;2023-06-01T00:16:20;11.57;;;5.22;;
26936;SDS011;14495;48.116;11.676;2023-06-01T00:18:45;8.23;;;4.30;;
26936;SDS011;14495;48.116;11.676;2023-06-01T00:21:11;9.18;;;4.85;;
26936;SDS011;14495;48.116;11.676;2023-06-01T00:23:36;8.82;;;4.75;;
26936;SDS011;14495;48.116;11.676;2023-06-01T00:26:05;9.77;;;5.15;;
26936;SDS011;14495;48.116;11.676;2023-06-01T00:28:32;10.35;;;5.22;;
26936;SDS011;14495;48.116;11.676;2023-06-01T00:30:57;9.93;;;5.65;;
26936;SDS011;14495;48.116;11.676;2023-06-01T00:33:23;7.97;;;4.82;;
26936;SDS011;14495;48.116;11.676;2023-06-01T00:35:49;11.80;;;5.20;;
26936;SDS011;14495;48.116;11.676;2023-06-01T00:38:15;11.18;;;4.85;;
26936;SDS011;14495;48.116;11.676;2023-06-01T00:40:40;9.13;;;4.68;;
26936;SDS011;14495;48.116;11.676;2023-06-01T00:43:06;10.73;;;5.43;;
26936;SDS011;14495;48.116;11.676;2023-06-01T00:45:31;9.00;;;5.45;;
26936;SDS011;14495;48.116;11.676;2023-06-01T00:47:56;9.93;;;5.22;;
26936;SDS011;14495;48.116;11.676;2023-06-01T00:50:22;10.73;;;5.90;;
26936;SDS011;14495;48.116;11.676;2023-06-01T00:52:49;8.68;;;5.32;;
26936;SDS011;14495;48.116;11.676;2023-06-01T00:55:15;9.60;;;5.45;;
26936;SDS011;14495;48.116;11.676;2023-06-01T00:57:44;14.45;;;5.43;;
26936;SDS011;14495;48.116;11.676;2023-06-01T01:00:10;10.98;;;4.97;;
26936;SDS011;14495;48.116;11.676;2023-06-01T01:02:37;10.02;;;5.00;;
26936;SDS011;14495;48.116;11.676;2023-06-01T01:05:07;8.13;;;4.95;;
26936;SDS011;14495;48.116;11.676;2023-06-01T01:16:03;9.35;;;5.35;;
26936;SDS011;14495;48.116;11.676;2023-06-01T01:18:36;7.93;;;5.03;;
26936;SDS011;14495;48.116;11.676;2023-06-01T01:21:05;9.25;;;5.65;;
26936;SDS011;14495;48.116;11.676;2023-06-01T01:28:59;9.68;;;5.10;;
26936;SDS011;14495;48.116;11.676;2023-06-01T01:31:26;7.38;;;4.50;;
26936;SDS011;14495;48.116;11.676;2023-06-01T01:33:53;8.05;;;4.70;;
26936;SDS011;14495;48.116;11.676;2023-06-01T01:36:20;7.75;;;4.72;;
26936;SDS011;14495;48.116;11.676;2023-06-01T01:38:46;8.63;;;4.95;;
26936;SDS011;14495;48.116;11.676;2023-06-01T01:41:12;9.27;;;5.50;;
26936;SDS011;14495;48.116;11.676;2023-06-01T01:43:37;10.38;;;5.15;;
26936;SDS011;14495;48.116;11.676;2023-06-01T01:51:35;7.97;;;4.93;;
26936;SDS011;14495;48.116;11.676;2023-06-01T01:54:04;8.85;;;5.05;;
26936;SDS011;14495;48.116;11.676;2023-06-01T01:56:31;12.25;;;5.72;;
26936;SDS011;14495;48.116;11.676;2023-06-01T01:58:57;9.57;;;5.00;;
26936;SDS011;14495;48.116;11.676;2023-06-01T02:01:24;10.15;;;5.60;;
26936;SDS011;14495;48.116;11.676;2023-06-01T02:04:07;9.88;;;5.60;;
26936;SDS011;14495;48.116;11.676;2023-06-01T02:06:33;10.45;;;5.55;;
26936;SDS011;14495;48.116;11.676;2023-06-01T02:08:59;10.48;;;6.30;;
26936;SDS011;14495;48.116;11.676;2023-06-01T02:11:24;9.95;;;5.22;;
26936;SDS011;14495;48.116;11.676;2023-06-01T02:13:50;10.82;;;5.70;;
26936;SDS011;14495;48.116;11.676;2023-06-01T02:16:17;9.77;;;5.90;;
26936;SDS011;14495;48.116;11.676;2023-06-01T02:18:43;9.32;;;5.53;;
26936;SDS011;14495;48.116;11.676;2023-06-01T02:21:11;12.82;;;6.25;;
26936;SDS011;14495;48.116;11.676;2023-06-01T02:23:37;9.50;;;5.72;;
26936;SDS011;14495;48.116;11.676;2023-06-01T02:26:04;11.88;;;6.15;;
26936;SDS011;14495;48.116;11.676;2023-06-01T02:28:30;12.02;;;5.78;;
26936;SDS011;14495;48.116;11.676;2023-06-01T02:30:56;11.50;;;5.82;;
26936;SDS011;14495;48.116;11.676;2023-06-01T02:33:21;9.30;;;5.25;;
26936;SDS011;14495;48.116;11.676;2023-06-01T02:35:49;9.65;;;5.55;;
26936;SDS011;14495;48.116;11.676;2023-06-01T02:38:17;13.02;;;5.88;;
26936;SDS011;14495;48.116;11.676;2023-06-01T02:40:43;9.40;;;5.63;;
26936;SDS011;14495;48.116;11.676;2023-06-01T02:43:08;8.18;;;5.82;;
26936;SDS011;14495;48.116;11.676;2023-06-01T02:45:33;14.85;;;7.22;;
26936;SDS011;14495;48.116;11.676;2023-06-01T02:47:59;11.88;;;5.57;;
26936;SDS011;14495;48.116;11.676;2023-06-01T02:50:24;12.00;;;5.63;;
26936;SDS011;14495;48.116;11.676;2023-06-01T02:52:50;10.80;;;6.47;;
26936;SDS011;14495;48.116;11.676;2023-06-01T02:55:16;8.70;;;4.90;;
26936;SDS011;14495;48.116;11.676;2023-06-01T02:57:41;8.55;;;5.55;;
26936;SDS011;14495;48.116;11.676;2023-06-01T03:00:07;8.70;;;5.50;;
26936;SDS011;14495;48.116;11.676;2023-06-01T03:02:41;11.32;;;6.03;;
26936;SDS011;14495;48.116;11.676;2023-06-01T03:05:07;11.45;;;6.00;;
26936;SDS011;14495;48.116;11.676;2023-06-01T03:07:32;10.93;;;5.50;;
26936;SDS011;14495;48.116;11.676;2023-06-01T03:10:00;7.65;;;4.85;;
26936;SDS011;14495;48.116;11.676;2023-06-01T03:12:26;10.38;;;6.05;;
26936;SDS011;14495;48.116;11.676;2023-06-01T03:14:51;10.68;;;6.13;;
26936;SDS011;14495;48.116;11.676;2023-06-01T03:17:16;7.57;;;5.47;;
26936;SDS011;14495;48.116;11.676;2023-06-01T03:19:42;9.52;;;5.70;;
26936;SDS011;14495;48.116;11.676;2023-06-01T03:22:07;8.05;;;5.03;;
26936;SDS011;14495;48.116;11.676;2023-06-01T03:24:33;10.68;;;5.43;;
26936;SDS011;14495;48.116;11.676;2023-06-01T03:26:59;13.82;;;5.25;;
26936;SDS011;14495;48.116;11.676;2023-06-01T03:29:26;10.10;;;5.47;;
26936;SDS011;14495;48.116;11.676;2023-06-01T03:31:51;8.80;;;5.30;;
26936;SDS011;14495;48.116;11.676;2023-06-01T03:34:17;12.48;;;5.22;;
26936;SDS011;14495;48.116;11.676;2023-06-01T03:36:42;8.07;;;5.30;;
26936;SDS011;14495;48.116;11.676;2023-06-01T03:39:12;11.07;;;5.60;;
26936;SDS011;14495;48.116;11.676;2023-06-01T03:41:41;11.25;;;6.07;;
26936;SDS011;14495;48.116;11.676;2023-06-01T03:44:08;9.35;;;5.45;;
26936;SDS011;14495;48.116;11.676;2023-06-01T03:46:34;9.05;;;5.75;;
26936;SDS011;14495;48.116;11.676;2023-06-01T03:49:00;12.20;;;5.22;;
26936;SDS011;14495;48.116;11.676;2023-06-01T03:51:25;8.07;;;5.10;;
26936;SDS011;14495;48.116;11.676;2023-06-01T03:53:51;9.98;;;5.25;;
26936;SDS011;14495;48.116;11.676;2023-06-01T03:56:16;9.23;;;5.25;;
26936;SDS011;14495;48.116;11.676;2023-06-01T03:58:42;10.70;;;5.80;;
26936;SDS011;14495;48.116;11.676;2023-06-01T04:01:07;9.13;;;5.70;;
26936;SDS011;14495;48.116;11.676;2023-06-01T04:03:33;11.52;;;6.22;;
26936;SDS011;14495;48.116;11.676;2023-06-01T04:05:58;11.15;;;5.03;;
26936;SDS011;14495;48.116;11.676;2023-06-01T04:08:25;11.60;;;5.38;;
26936;SDS011;14495;48.116;11.676;2023-06-01T04:10:51;9.88;;;5.60;;
26936;SDS011;14495;48.116;11.676;2023-06-01T04:13:16;10.48;;;5.93;;
26936;SDS011;14495;48.116;11.676;2023-06-01T04:15:42;10.52;;;6.15;;
26936;SDS011;14495;48.116;11.676;2023-06-01T04:18:07;9.00;;;5.35;;
26936;SDS011;14495;48.116;11.676;2023-06-01T04:20:33;10.00;;;5.63;;
26936;SDS011;14495;48.116;11.676;2023-06-01T04:22:59;10.48;;;6.47;;
26936;SDS011;14495;48.116;11.676;2023-06-01T04:25:25;9.95;;;5.80;;
26936;SDS011;14495;48.116;11.676;2023-06-01T04:27:50;11.10;;;6.55;;
26936;SDS011;14495;48.116;11.676;2023-06-01T04:30:19;8.65;;;5.90;;
26936;SDS011;14495;48.116;11.676;2023-06-01T04:32:46;11.85;;;6.53;;
26936;SDS011;14495;48.116;11.676;2023-06-01T04:35:13;11.35;;;6.28;;
26936;SDS011;14495;48.116;11.676;2023-06-01T04:37:39;10.52;;;6.10;;
26936;SDS011;14495;48.116;11.676;2023-06-01T04:40:09;12.05;;;6.40;;
26936;SDS011;14495;48.116;11.676;2023-06-01T04:42:35;13.63;;;6.40;;
26936;SDS011;14495;48.116;11.676;2023-06-01T04:45:05;8.73;;;5.80;;
26936;SDS011;14495;48.116;11.676;2023-06-01T04:47:32;11.60;;;6.65;;
26936;SDS011;14495;48.116;11.676;2023-06-01T04:50:05;10.32;;;6.68;;
26936;SDS011;14495;48.116;11.676;2023-06-01T04:52:33;17.33;;;7.28;;
26936;SDS011;14495;48.116;11.676;2023-06-01T04:54:58;12.98;;;7.03;;
26936;SDS011;14495;48.116;11.676;2023-06-01T04:57:24;9.60;;;6.00;;
26936;SDS011;14495;48.116;11.676;2023-06-01T04:59:50;8.90;;;5.70;;
26936;SDS011;14495;48.116;11.676;2023-06-01T05:02:16;12.52;;;6.10;;
26936;SDS011;14495;48.116;11.676;2023-06-01T05:04:42;13.55;;;6.38;;
26936;SDS011;14495;48.116;11.676;2023-06-01T05:07:07;10.88;;;6.35;;
26936;SDS011;14495;48.116;11.676;2023-06-01T05:09:33;11.55;;;6.25;;
26936;SDS011;14495;48.116;11.676;2023-06-01T05:11:58;17.48;;;6.07;;
26936;SDS011;14495;48.116;11.676;2023-06-01T05:14:23;10.85;;;6.28;;
26936;SDS011;14495;48.116;11.676;2023-06-01T05:16:49;13.02;;;6.28;;
26936;SDS011;14495;48.116;11.676;2023-06-01T05:19:14;11.93;;;6.55;;
26936;SDS011;14495;48.116;11.676;2023-06-01T05:21:41;11.30;;;5.80;;
26936;SDS011;14495;48.116;11.676;2023-06-01T05:24:08;12.45;;;6.53;;
26936;SDS011;14495;48.116;11.676;2023-06-01T05:26:33;11.35;;;6.05;;
26936;SDS011;14495;48.116;11.676;2023-06-01T05:28:58;10.48;;;6.10;;
26936;SDS011;14495;48.116;11.676;2023-06-01T05:31:24;11.68;;;6.85;;
26936;SDS011;14495;48.116;11.676;2023-06-01T05:33:49;12.68;;;6.00;;
26936;SDS011;14495;48.116;11.676;2023-06-01T05:36:16;13.55;;;6.10;;
26936;SDS011;14495;48.116;11.676;2023-06-01T05:38:41;10.40;;;6.10;;
26936;SDS011;14495;48.116;11.676;2023-06-01T05:41:06;15.10;;;6.55;;
26936;SDS011;14495;48.116;11.676;2023-06-01T05:43:34;11.88;;;6.15;;
26936;SDS011;14495;48.116;11.676;2023-06-01T05:46:00;15.57;;;6.35;;
26936;SDS011;14495;48.116;11.676;2023-06-01T05:48:25;14.18;;;5.78;;
26936;SDS011;14495;48.116;11.676;2023-06-01T05:50:51;9.95;;;4.95;;
26936;SDS011;14495;48.116;11.676;2023-06-01T05:53:16;18.80;;;6.03;;
26936;SDS011;14495;48.116;11.676;2023-06-01T05:55:41;11.45;;;5.03;;
26936;SDS011;14495;48.116;11.676;2023-06-01T05:58:07;9.50;;;5.80;;
26936;SDS011;14495;48.116;11.676;2023-06-01T06:00:33;9.57;;;5.10;;
26936;SDS011;14495;48.116;11.676;2023-06-01T06:03:00;10.60;;;5.10;;
26936;SDS011;14495;48.116;11.676;2023-06-01T06:05:25;18.35;;;5.50;;
26936;SDS011;14495;48.116;11.676;2023-06-01T06:07:51;8.57;;;4.22;;
26936;SDS011;14495;48.116;11.676;2023-06-01T06:10:16;10.68;;;4.05;;
26936;SDS011;14495;48.116;11.676;2023-06-01T06:12:42;10.45;;;4.53;;
26936;SDS011;14495;48.116;11.676;2023-06-01T06:15:07;8.05;;;5.07;;
26936;SDS011;14495;48.116;11.676;2023-06-01T06:17:33;15.00;;;5.05;;
26936;SDS011;14495;48.116;11.676;2023-06-01T06:19:58;11.85;;;4.47;;
26936;SDS011;14495;48.116;11.676;2023-06-01T06:22:24;7.43;;;4.55;;
26936;SDS011;14495;48.116;11.676;2023-06-01T06:24:50;21.83;;;4.43;;
26936;SDS011;14495;48.116;11.676;2023-06-01T06:27:15;11.25;;;4.85;;
26936;SDS011;14495;48.116;11.676;2023-06-01T06:29:41;12.85;;;4.78;;
26936;SDS011;14495;48.116;11.676;2023-06-01T06:32:06;7.10;;;4.65;;
26936;SDS011;14495;48.116;11.676;2023-06-01T06:34:32;13.73;;;4.90;;
26936;SDS011;14495;48.116;11.676;2023-06-01T06:37:04;9.10;;;4.90;;
26936;SDS011;14495;48.116;11.676;2023-06-01T06:39:30;7.35;;;4.00;;
26936;SDS011;14495;48.116;11.676;2023-06-01T06:41:58;9.00;;;4.93;;
26936;SDS011;14495;48.116;11.676;2023-06-01T06:44:26;43.42;;;6.40;;
26936;SDS011;14495;48.116;11.676;2023-06-01T06:46:51;10.73;;;4.65;;
26936;SDS011;14495;48.116;11.676;2023-06-01T06:49:16;13.07;;;4.70;;
26936;SDS011;14495;48.116;11.676;2023-06-01T06:51:43;7.65;;;4.68;;
26936;SDS011;14495;48.116;11.676;2023-06-01T06:54:08;8.63;;;4.72;;
26936;SDS011;14495;48.116;11.676;2023-06-01T06:56:34;8.70;;;4.93;;
26936;SDS011;14495;48.116;11.676;2023-06-01T06:58:59;8.43;;;5.15;;
26936;SDS011;14495;48.116;11.676;2023-06-01T07:01:24;15.35;;;4.80;;
26936;SDS011;14495;48.116;11.676;2023-06-01T07:03:50;10.48;;;5.05;;
26936;SDS011;14495;48.116;11.676;2023-06-01T07:06:17;9.88;;;4.63;;
26936;SDS011;14495;48.116;11.676;2023-06-01T07:08:43;13.93;;;5.22;;
26936;SDS011;14495;48.116;11.676;2023-06-01T07:11:09;9.48;;;4.95;;
26936;SDS011;14495;48.116;11.676;2023-06-01T07:13:34;9.02;;;4.85;;
26936;SDS011;14495;48.116;11.676;2023-06-01T07:16:00;10.27;;;4.22;;
26936;SDS011;14495;48.116;11.676;2023-06-01T07:18:26;9.75;;;4.88;;
26936;SDS011;14495;48.116;11.676;2023-06-01T07:20:51;10.82;;;4.55;;
26936;SDS011;14495;48.116;11.676;2023-06-01T07:23:17;9.48;;;5.30;;
26936;SDS011;14495;48.116;11.676;2023-06-01T07:25:42;12.73;;;5.13;;
26936;SDS011;14495;48.116;11.676;2023-06-01T07:28:07;14.32;;;5.32;;
26936;SDS011;14495;48.116;11.676;2023-06-01T07:30:38;7.68;;;4.90;;
26936;SDS011;14495;48.116;11.676;2023-06-01T07:33:03;16.30;;;5.28;;
26936;SDS011;14495;48.116;11.676;2023-06-01T07:35:29;7.97;;;5.07;;
26936;SDS011;14495;48.116;11.676;2023-06-01T07:37:54;7.50;;;4.50;;
26936;SDS011;14495;48.116;11.676;2023-06-01T07:40:20;9.52;;;4.60;;
26936;SDS011;14495;48.116;11.676;2023-06-01T07:42:45;10.27;;;5.30;;
26936;SDS011;14495;48.116;11.676;2023-06-01T07:45:11;11.45;;;4.90;;
26936;SDS011;14495;48.116;11.676;2023-06-01T07:47:36;8.13;;;4.55;;
26936;SDS011;14495;48.116;11.676;2023-06-01T07:50:02;7.32;;;4.80;;
26936;SDS011;14495;48.116;11.676;2023-06-01T07:52:28;8.38;;;4.65;;
26936;SDS011;14495;48.116;11.676;2023-06-01T07:54:53;12.48;;;5.15;;
26936;SDS011;14495;48.116;11.676;2023-06-01T07:57:19;15.38;;;4.40;;
26936;SDS011;14495;48.116;11.676;2023-06-01T07:59:44;7.43;;;4.53;;
26936;SDS011;14495;48.116;11.676;2023-06-01T08:02:10;11.38;;;4.90;;
26936;SDS011;14495;48.116;11.676;2023-06-01T08:04:36;12.02;;;5.20;;
26936;SDS011;14495;48.116;11.676;2023-06-01T08:07:04;11.45;;;5.00;;
26936;SDS011;14495;48.116;11.676;2023-06-01T08:09:31;8.75;;;4.38;;
26936;SDS011;14495;48.116;11.676;2023-06-01T08:11:57;15.27;;;5.13;;
26936;SDS011;14495;48.116;11.676;2023-06-01T08:14:22;11.60;;;4.60;;
26936;SDS011;14495;48.116;11.676;2023-06-01T08:16:48;12.38;;;5.10;;
26936;SDS011;14495;48.116;11.676;2023-06-01T08:19:13;9.23;;;4.57;;
26936;SDS011;14495;48.116;11.676;2023-06-01T08:21:39;9.80;;;5.07;;
26936;SDS011;14495;48.116;11.676;2023-06-01T08:24:06;16.77;;;4.97;;
26936;SDS011;14495;48.116;11.676;2023-06-01T08:26:35;30.20;;;5.97;;
26936;SDS011;14495;48.116;11.676;2023-06-01T08:29:01;18.02;;;5.30;;
26936;SDS011;14495;48.116;11.676;2023-06-01T08:31:26;6.55;;;4.43;;
26936;SDS011;14495;48.116;11.676;2023-06-01T08:33:51;9.68;;;4.53;;
26936;SDS011;14495;48.116;11.676;2023-06-01T08:36:18;14.23;;;5.88;;
26936;SDS011;14495;48.116;11.676;2023-06-01T08:38:44;14.30;;;4.78;;
26936;SDS011;14495;48.116;11.676;2023-06-01T08:43:46;19.27;;;5.10;;
26936;SDS011;14495;48.116;11.676;2023-06-01T08:46:23;8.75;;;4.15;;
26936;SDS011;14495;48.116;11.676;2023-06-01T08:48:52;17.75;;;4.50;;
26936;SDS011;14495;48.116;11.676;2023-06-01T08:51:20;10.23;;;4.80;;
26936;SDS011;14495;48.116;11.676;2023-06-01T08:53:49;9.82;;;4.18;;
26936;SDS011;14495;48.116;11.676;2023-06-01T08:56:16;8.65;;;4.47;;
26936;SDS011;14495;48.116;11.676;2023-06-01T08:58:43;6.65;;;4.20;;
26936;SDS011;14495;48.116;11.676;2023-06-01T09:01:09;13.45;;;4.70;;
26936;SDS011;14495;48.116;11.676;2023-06-01T09:03:37;11.95;;;4.32;;
26936;SDS011;14495;48.116;11.676;2023-06-01T09:06:02;9.25;;;4.07;;
26936;SDS011;14495;48.116;11.676;2023-06-01T09:08:28;19.27;;;5.95;;
26936;SDS011;14495;48.116;11.676;2023-06-01T09:10:54;36.08;;;6.13;;
26936;SDS011;14495;48.116;11.676;2023-06-01T09:13:38;13.82;;;5.07;;
26936;SDS011;14495;48.116;11.676;2023-06-01T09:16:04;6.28;;;4.15;;
26936;SDS011;14495;48.116;11.676;2023-06-01T09:18:31;9.13;;;4.25;;
26936;SDS011;14495;48.116;11.676;2023-06-01T09:21:09;11.50;;;4.78;;
26936;SDS011;14495;48.116;11.676;2023-06-01T09:23:36;23.95;;;4.97;;
26936;SDS011;14495;48.116;11.676;2023-06-01T09:26:03;10.35;;;3.90;;
26936;SDS011;14495;48.116;11.676;2023-06-01T09:31:36;9.32;;;4.40;;
26936;SDS011;14495;48.116;11.676;2023-06-01T09:34:13;7.40;;;3.97;;
26936;SDS011;14495;48.116;11.676;2023-06-01T09:36:50;8.13;;;4.00;;
26936;SDS011;14495;48.116;11.676;2023-06-01T09:39:20;8.25;;;4.50;;
26936;SDS011;14495;48.116;11.676;2023-06-01T09:44:33;10.05;;;4.13;;
26936;SDS011;14495;48.116;11.676;2023-06-01T09:47:01;18.00;;;4.28;;
26936;SDS011;14495;48.116;11.676;2023-06-01T09:49:29;7.22;;;3.78;;
26936;SDS011;14495;48.116;11.676;2023-06-01T09:56:58;7.53;;;4.03;;
26936;SDS011;14495;48.116;11.676;2023-06-01T09:59:25;7.75;;;4.38;;
26936;SDS011;14495;48.116;11.676;2023-06-01T10:01:53;7.63;;;4.25;;
26936;SDS011;14495;48.116;11.676;2023-06-01T10:04:21;11.60;;;4.15;;
26936;SDS011;14495;48.116;11.676;2023-06-01T10:06:48;7.45;;;4.18;;
26936;SDS011;14495;48.116;11.676;2023-06-01T10:09:17;7.68;;;4.57;;
26936;SDS011;14495;48.116;11.676;2023-06-01T10:11:45;6.07;;;4.15;;
26936;SDS011;14495;48.116;11.676;2023-06-01T10:14:15;8.32;;;3.72;;
26936;SDS011;14495;48.116;11.676;2023-06-01T10:16:44;7.13;;;4.03;;
26936;SDS011;14495;48.116;11.676;2023-06-01T10:19:10;8.07;;;4.40;;
26936;SDS011;14495;48.116;11.676;2023-06-01T10:21:36;11.27;;;4.43;;
26936;SDS011;14495;48.116;11.676;2023-06-01T10:24:02;10.50;;;4.55;;
26936;SDS011;14495;48.116;11.676;2023-06-01T10:26:28;6.30;;;4.13;;
26936;SDS011;14495;48.116;11.676;2023-06-01T10:28:58;9.07;;;4.15;;
26936;SDS011;14495;48.116;11.676;2023-06-01T10:34:02;5.95;;;4.20;;
26936;SDS011;14495;48.116;11.676;2023-06-01T10:39:25;5.45;;;3.40;;
26936;SDS011;14495;48.116;11.676;2023-06-01T10:41:52;6.18;;;3.53;;
26936;SDS011;14495;48.116;11.676;2023-06-01T10:47:07;5.63;;;3.60;;
26936;SDS011;14495;48.116;11.676;2023-06-01T10:52:25;10.25;;;4.10;;
26936;SDS011;14495;48.116;11.676;2023-06-01T10:57:39;11.25;;;4.53;;
26936;SDS011;14495;48.116;11.676;2023-06-01T11:02:51;7.57;;;3.65;;
26936;SDS011;14495;48.116;11.676;2023-06-01T11:05:33;9.85;;;4.20;;
26936;SDS011;14495;48.116;11.676;2023-06-01T11:08:06;6.75;;;3.50;;
26936;SDS011;14495;48.116;11.676;2023-06-01T11:13:18;19.30;;;5.28;;
26936;SDS011;14495;48.116;11.676;2023-06-01T11:21:16;7.70;;;4.40;;
26936;SDS011;14495;48.116;11.676;2023-06-01T11:23:44;7.50;;;4.97;;
26936;SDS011;14495;48.116;11.676;2023-06-01T11:26:10;5.35;;;3.30;;
26936;SDS011;14495;48.116;11.676;2023-06-01T11:28:40;11.18;;;4.00;;
26936;SDS011;14495;48.116;11.676;2023-06-01T11:31:14;5.57;;;3.35;;
26936;SDS011;14495;48.116;11.676;2023-06-01T11:33:52;8.52;;;3.53;;
26936;SDS011;14495;48.116;11.676;2023-06-01T11:36:19;8.15;;;3.65;;
26936;SDS011;14495;48.116;11.676;2023-06-01T11:38:50;6.13;;;3.38;;
26936;SDS011;14495;48.116;11.676;2023-06-01T11:41:16;6.97;;;3.45;;
26936;SDS011;14495;48.116;11.676;2023-06-01T11:43:41;9.98;;;3.92;;
26936;SDS011;14495;48.116;11.676;2023-06-01T11:46:07;6.85;;;3.88;;
26936;SDS011;14495;48.116;11.676;2023-06-01T11:48:34;6.53;;;3.63;;
26936;SDS011;14495;48.116;11.676;2023-06-01T11:51:02;5.70;;;3.80;;
26936;SDS011;14495;48.116;11.676;2023-06-01T11:53:29;8.30;;;3.60;;
26936;SDS011;14495;48.116;11.676;2023-06-01T11:55:58;6.10;;;4.13;;
26936;SDS011;14495;48.116;11.676;2023-06-01T11:58:28;8.88;;;3.75;;
26936;SDS011;14495;48.116;11.676;2023-06-01T12:00:55;5.97;;;3.38;;
26936;SDS011;14495;48.116;11.676;2023-06-01T12:03:22;5.50;;;2.88;;
26936;SDS011;14495;48.116;11.676;2023-06-01T12:05:51;5.32;;;3.20;;
26936;SDS011;14495;48.116;11.676;2023-06-01T12:08:18;5.80;;;3.20;;
26936;SDS011;14495;48.116;11.676;2023-06-01T12:10:45;7.28;;;3.45;;
26936;SDS011;14495;48.116;11.676;2023-06-01T12:13:15;5.10;;;3.75;;
26936;SDS011;14495;48.116;11.676;2023-06-01T12:15:42;9.82;;;4.05;;
26936;SDS011;14495;48.116;11.676;2023-06-01T12:18:08;16.80;;;4.28;;
26936;SDS011;14495;48.116;11.676;2023-06-01T12:20:34;7.20;;;3.72;;
26936;SDS011;14495;48.116;11.676;2023-06-01T12:28:18;5.70;;;3.97;;
26936;SDS011;14495;48.116;11.676;2023-06-01T12:30:44;7.07;;;3.70;;
26936;SDS011;14495;48.116;11.676;2023-06-01T12:33:29;10.45;;;4.40;;
26936;SDS011;14495;48.116;11.676;2023-06-01T12:35:57;5.05;;;3.20;;
26936;SDS011;14495;48.116;11.676;2023-06-01T12:38:25;7.32;;;3.70;;
26936;SDS011;14495;48.116;11.676;2023-06-01T12:41:07;6.72;;;3.88;;
26936;SDS011;14495;48.116;11.676;2023-06-01T12:43:43;5.68;;;3.42;;
26936;SDS011;14495;48.116;11.676;2023-06-01T12:46:17;9.18;;;3.60;;
26936;SDS011;14495;48.116;11.676;2023-06-01T12:48:46;7.97;;;3.72;;
26936;SDS011;14495;48.116;11.676;2023-06-01T12:51:13;8.05;;;3.70;;
26936;SDS011;14495;48.116;11.676;2023-06-01T12:53:38;6.13;;;3.33;;
26936;SDS011;14495;48.116;11.676;2023-06-01T12:56:05;7.20;;;4.03;;
26936;SDS011;14495;48.116;11.676;2023-06-01T12:58:31;5.35;;;3.47;;
26936;SDS011;14495;48.116;11.676;2023-06-01T13:00:56;5.60;;;3.60;;
26936;SDS011;14495;48.116;11.676;2023-06-01T13:03:24;7.60;;;3.65;;
26936;SDS011;14495;48.116;11.676;2023-06-01T13:05:50;9.00;;;3.72;;
26936;SDS011;14495;48.116;11.676;2023-06-01T13:08:16;8.63;;;3.78;;
26936;SDS011;14495;48.116;11.676;2023-06-01T13:10:42;12.23;;;3.70;;
26936;SDS011;14495;48.116;11.676;2023-06-01T13:13:10;7.93;;;4.20;;
26936;SDS011;14495;48.116;11.676;2023-06-01T13:15:40;23.13;;;6.22;;
26936;SDS011;14495;48.116;11.676;2023-06-01T13:18:09;9.93;;;3.88;;
26936;SDS011;14495;48.116;11.676;2023-06-01T13:20:35;10.02;;;3.55;;
26936;SDS011;14495;48.116;11.676;2023-06-01T13:23:01;6.45;;;3.80;;
26936;SDS011;14495;48.116;11.676;2023-06-01T13:25:28;7.38;;;3.20;;
26936;SDS011;14495;48.116;11.676;2023-06-01T13:27:54;5.75;;;3.30;;
26936;SDS011;14495;48.116;11.676;2023-06-01T13:30:19;7.28;;;3.30;;
26936;SDS011;14495;48.116;11.676;2023-06-01T13:32:44;6.95;;;3.55;;
26936;SDS011;14495;48.116;11.676;2023-06-01T13:35:10;7.50;;;3.45;;
26936;SDS011;14495;48.116;11.676;2023-06-01T13:37:36;76.28;;;8.40;;
26936;SDS011;14495;48.116;11.676;2023-06-01T13:40:02;12.70;;;3.80;;
26936;SDS011;14495;48.116;11.676;2023-06-01T13:42:30;10.70;;;3.53;;
26936;SDS011;14495;48.116;11.676;2023-06-01T13:44:55;19.98;;;3.85;;
26936;SDS011;14495;48.116;11.676;2023-06-01T13:47:21;5.55;;;3.25;;
26936;SDS011;14495;48.116;11.676;2023-06-01T13:49:47;4.60;;;3.05;;
26936;SDS011;14495;48.116;11.676;2023-06-01T13:52:12;5.20;;;3.08;;
26936;SDS011;14495;48.116;11.676;2023-06-01T13:54:38;15.75;;;3.60;;
26936;SDS011;14495;48.116;11.676;2023-06-01T13:57:03;8.95;;;3.20;;
26936;SDS011;14495;48.116;11.676;2023-06-01T13:59:30;10.45;;;3.60;;
26936;SDS011;14495;48.116;11.676;2023-06-01T14:01:57;7.85;;;3.28;;
26936;SDS011;14495;48.116;11.676;2023-06-01T14:04:22;6.15;;;3.45;;
26936;SDS011;14495;48.116;11.676;2023-06-01T14:06:48;7.00;;;3.38;;
26936;SDS011;14495;48.116;11.676;2023-06-01T14:09:15;7.75;;;3.10;;
26936;SDS011;14495;48.116;11.676;2023-06-01T14:11:41;6.10;;;2.88;;
26936;SDS011;14495;48.116;11.676;2023-06-01T14:14:07;5.25;;;3.00;;
26936;SDS011;14495;48.116;11.676;2023-06-01T14:16:32;4.68;;;3.08;;
26936;SDS011;14495;48.116;11.676;2023-06-01T14:19:00;8.40;;;2.97;;
26936;SDS011;14495;48.116;11.676;2023-06-01T14:21:27;7.72;;;3.47;;
26936;SDS011;14495;48.116;11.676;2023-06-01T14:23:54;4.68;;;2.75;;
26936;SDS011;14495;48.116;11.676;2023-06-01T14:26:19;5.35;;;3.40;;
26936;SDS011;14495;48.116;11.676;2023-06-01T14:28:45;6.40;;;3.47;;
26936;SDS011;14495;48.116;11.676;2023-06-01T14:31:11;5.53;;;3.35;;
26936;SDS011;14495;48.116;11.676;2023-06-01T14:33:36;5.65;;;2.80;;
26936;SDS011;14495;48.116;11.676;2023-06-01T14:36:02;5.20;;;2.78;;
26936;SDS011;14495;48.116;11.676;2023-06-01T14:38:29;9.35;;;3.38;;
26936;SDS011;14495;48.116;11.676;2023-06-01T14:40:54;5.57;;;3.28;;
26936;SDS011;14495;48.116;11.676;2023-06-01T14:43:20;5.53;;;3.42;;
26936;SDS011;14495;48.116;11.676;2023-06-01T14:45:45;6.57;;;3.63;;
26936;SDS011;14495;48.116;11.676;2023-06-01T14:48:10;8.77;;;3.58;;
26936;SDS011;14495;48.116;11.676;2023-06-01T14:50:36;7.55;;;3.50;;
26936;SDS011;14495;48.116;11.676;2023-06-01T14:53:01;7.95;;;3.08;;
26936;SDS011;14495;48.116;11.676;2023-06-01T14:55:27;8.55;;;3.47;;
26936;SDS011;14495;48.116;11.676;2023-06-01T14:57:52;7.38;;;3.47;;
26936;SDS011;14495;48.116;11.676;2023-06-01T15:00:18;7.97;;;3.30;;
26936;SDS011;14495;48.116;11.676;2023-06-01T15:02:44;5.45;;;3.20;;
26936;SDS011;14495;48.116;11.676;2023-06-01T15:05:10;5.25;;;3.10;;
26936;SDS011;14495;48.116;11.676;2023-06-01T15:07:36;6.47;;;3.13;;
26936;SDS011;14495;48.116;11.676;2023-06-01T15:10:01;7.18;;;3.25;;
26936;SDS011;14495;48.116;11.676;2023-06-01T15:12:27;7.90;;;2.90;;
26936;SDS011;14495;48.116;11.676;2023-06-01T15:14:53;5.90;;;3.33;;
26936;SDS011;14495;48.116;11.676;2023-06-01T15:17:18;6.22;;;2.95;;
26936;SDS011;14495;48.116;11.676;2023-06-01T15:19:44;5.72;;;3.55;;
26936;SDS011;14495;48.116;11.676;2023-06-01T15:22:10;5.95;;;3.22;;
26936;SDS011;14495;48.116;11.676;2023-06-01T15:24:35;9.57;;;3.50;;
26936;SDS011;14495;48.116;11.676;2023-06-01T15:27:08;5.97;;;3.53;;
26936;SDS011;14495;48.116;11.676;2023-06-01T15:29:34;6.85;;;3.50;;